createdAt,value
2018-05-21T00:02:11.724Z,101483.40
2018-05-21T00:04:37.669Z,101478.53
2018-05-21T00:07:03.617Z,101487.33
2018-05-21T00:12:22.439Z,101484.98
2018-05-21T00:14:48.347Z,101486.23
2018-05-21T00:17:14.286Z,101487.08
2018-05-21T00:19:40.212Z,101493.72
2018-05-21T00:22:06.144Z,101484.73
2018-05-21T00:24:32.090Z,101482.43
2018-05-21T00:26:58.050Z,101485.91
2018-05-21T00:29:24.006Z,101486.97
2018-05-21T00:31:49.949Z,101480.92
2018-05-21T00:34:15.896Z,101479.79
2018-05-21T00:36:41.860Z,101489.39
2018-05-21T00:39:07.781Z,101483.08
2018-05-21T00:41:33.716Z,101484.84
2018-05-21T00:43:59.698Z,101490.45
2018-05-21T00:46:25.618Z,101488.66
2018-05-21T00:48:51.550Z,101494.84
2018-05-21T00:51:17.458Z,101492.13
2018-05-21T00:53:43.400Z,101494.17
2018-05-21T00:56:09.328Z,101495.90
2018-05-21T00:58:35.240Z,101493.13
2018-05-21T01:01:01.189Z,101490.47
2018-05-21T01:03:27.105Z,101484.28
2018-05-21T01:05:53.015Z,101491.37
2018-05-21T01:08:18.914Z,101488.54
2018-05-21T01:10:44.846Z,101485.67
2018-05-21T01:13:10.774Z,101487.22
2018-05-21T01:15:36.797Z,101487.16
2018-05-21T01:18:02.649Z,101485.09
2018-05-21T01:20:28.559Z,101492.34
2018-05-21T01:22:54.483Z,101489.62
2018-05-21T01:25:20.410Z,101495.77
2018-05-21T01:27:46.346Z,101494.27
2018-05-21T01:30:12.264Z,101490.97
2018-05-21T01:32:38.194Z,101490.66
2018-05-21T01:35:04.115Z,101495.94
2018-05-21T01:37:30.046Z,101487.41
2018-05-21T01:39:55.976Z,101489.23
2018-05-21T01:42:21.899Z,101494.55
2018-05-21T01:44:47.833Z,101492.38
2018-05-21T01:47:13.729Z,101484.26
2018-05-21T01:49:39.669Z,101480.40
2018-05-21T01:52:05.583Z,101481.72
2018-05-21T01:54:31.536Z,101474.89
2018-05-21T01:56:57.455Z,101479.22
2018-05-21T01:59:23.379Z,101472.97
2018-05-21T02:01:49.296Z,101474.16
2018-05-21T02:04:15.211Z,101470.50
2018-05-21T02:06:41.158Z,101470.98
2018-05-21T02:09:07.060Z,101472.50
2018-05-21T02:11:33.029Z,101469.42
2018-05-21T02:13:58.942Z,101467.20
2018-05-21T02:16:24.869Z,101464.11
2018-05-21T02:18:50.788Z,101472.67
2018-05-21T02:21:16.740Z,101472.70
2018-05-21T02:23:42.660Z,101466.91
2018-05-21T02:26:08.573Z,101468.17
2018-05-21T02:28:34.500Z,101468.48
2018-05-21T02:31:00.422Z,101466.98
2018-05-21T02:33:26.353Z,101467.01
2018-05-21T02:35:52.255Z,101465.52
2018-05-21T02:38:18.183Z,101464.87
2018-05-21T02:40:44.105Z,101461.83
2018-05-21T02:43:10.050Z,101465.90
2018-05-21T02:45:36.002Z,101463.19
2018-05-21T02:48:01.940Z,101466.20
2018-05-21T02:50:27.855Z,101468.66
2018-05-21T02:52:53.799Z,101464.61
2018-05-21T02:55:19.745Z,101468.22
2018-05-21T02:57:45.664Z,101462.16
2018-05-21T03:00:11.621Z,101457.37
2018-05-21T03:02:37.548Z,101462.70
2018-05-21T03:05:03.521Z,101463.37
2018-05-21T03:07:29.420Z,101468.16
2018-05-21T03:09:55.353Z,101460.86
2018-05-21T03:12:21.271Z,101463.54
2018-05-21T03:14:47.200Z,101463.59
2018-05-21T03:17:13.143Z,101462.56
2018-05-21T03:19:39.047Z,101459.84
2018-05-21T03:22:04.972Z,101456.82
2018-05-21T03:24:30.880Z,101462.59
2018-05-21T03:26:56.795Z,101464.01
2018-05-21T03:29:22.727Z,101466.77
2018-05-21T03:31:48.676Z,101473.02
2018-05-21T03:34:14.593Z,101466.31
2018-05-21T03:36:40.524Z,101472.83
2018-05-21T03:39:06.447Z,101479.02
2018-05-21T03:41:32.401Z,101478.66
2018-05-21T03:43:58.325Z,101474.14
2018-05-21T03:46:24.230Z,101481.34
2018-05-21T03:48:50.141Z,101474.66
2018-05-21T03:51:16.053Z,101476.41
2018-05-21T03:53:42.000Z,101481.13
2018-05-21T03:56:07.918Z,101484.70
2018-05-21T03:58:46.409Z,101482.74
2018-05-21T04:01:24.486Z,101484.95
2018-05-21T04:03:54.336Z,101477.91
2018-05-21T04:06:20.256Z,101476.25
2018-05-21T04:08:46.192Z,101482.30
2018-05-21T04:11:12.118Z,101475.66
2018-05-21T04:13:38.037Z,101481.34
2018-05-21T04:16:03.960Z,101478.84
2018-05-21T04:18:29.880Z,101477.07
2018-05-21T04:20:55.815Z,101474.44
2018-05-21T04:23:21.726Z,101474.88
2018-05-21T04:25:47.651Z,101479.45
2018-05-21T04:28:13.578Z,101480.69
2018-05-21T04:30:39.531Z,101473.92
2018-05-21T04:33:05.462Z,101468.98
2018-05-21T04:35:31.371Z,101474.13
2018-05-21T04:37:57.283Z,101472.61
2018-05-21T04:40:23.205Z,101473.84
2018-05-21T04:42:49.149Z,101469.72
2018-05-21T04:45:15.083Z,101471.91
2018-05-21T04:47:41.025Z,101473.92
2018-05-21T04:50:06.937Z,101470.75
2018-05-21T04:52:32.852Z,101472.27
2018-05-21T04:54:58.768Z,101463.83
2018-05-21T04:57:24.685Z,101469.42
2018-05-21T04:59:50.602Z,101463.28
2018-05-21T05:02:16.526Z,101462.02
2018-05-21T05:04:42.488Z,101462.35
2018-05-21T05:07:08.397Z,101448.92
2018-05-21T05:09:34.348Z,101453.66
2018-05-21T05:12:00.263Z,101453.11
2018-05-21T05:14:26.200Z,101448.25
2018-05-21T05:16:52.108Z,101447.84
2018-05-21T05:19:18.022Z,101450.91
2018-05-21T05:21:43.982Z,101453.02
2018-05-21T05:24:09.896Z,101456.36
2018-05-21T05:26:35.924Z,101444.25
2018-05-21T05:29:01.786Z,101454.72
2018-05-21T05:31:27.726Z,101453.19
2018-05-21T05:33:53.740Z,101454.76
2018-05-21T05:36:19.673Z,101454.92
2018-05-21T05:38:45.610Z,101462.59
2018-05-21T05:41:11.539Z,101450.05
2018-05-21T05:43:37.474Z,101446.02
2018-05-21T05:46:03.388Z,101442.01
2018-05-21T05:48:29.319Z,101446.37
2018-05-21T05:50:55.256Z,101446.73
2018-05-21T05:53:21.196Z,101446.20
2018-05-21T05:55:47.101Z,101439.88
2018-05-21T05:58:13.047Z,101442.75
2018-05-21T06:00:38.966Z,101436.33
2018-05-21T06:03:04.891Z,101436.52
2018-05-21T06:05:30.828Z,101430.15
2018-05-21T06:07:56.739Z,101440.59
2018-05-21T06:10:22.673Z,101435.05
2018-05-21T06:12:48.599Z,101433.27
2018-05-21T06:15:14.523Z,101424.76
2018-05-21T06:17:40.399Z,101424.17
2018-05-21T06:20:06.351Z,101424.23
2018-05-21T06:22:32.269Z,101419.20
2018-05-21T06:24:58.209Z,101420.57
2018-05-21T06:27:24.131Z,101416.73
2018-05-21T06:29:50.070Z,101410.73
2018-05-21T06:32:16.018Z,101420.09
2018-05-21T06:34:41.949Z,101416.72
2018-05-21T06:37:07.888Z,101416.38
2018-05-21T06:39:33.795Z,101415.64
2018-05-21T06:41:59.736Z,101409.80
2018-05-21T06:44:25.663Z,101410.50
2018-05-21T06:46:51.598Z,101410.94
2018-05-21T06:49:17.518Z,101410.98
2018-05-21T06:51:43.446Z,101413.92
2018-05-21T06:54:09.417Z,101411.98
2018-05-21T06:56:35.380Z,101417.20
2018-05-21T06:59:01.312Z,101405.89
2018-05-21T07:01:27.248Z,101413.65
2018-05-21T07:03:53.180Z,101405.77
2018-05-21T07:06:19.123Z,101407.98
2018-05-21T07:08:45.048Z,101407.08
2018-05-21T07:11:10.963Z,101398.66
2018-05-21T07:13:36.914Z,101397.52
2018-05-21T07:16:02.820Z,101392.31
2018-05-21T07:18:28.754Z,101393.09
2018-05-21T07:20:54.693Z,101390.58
2018-05-21T07:23:20.622Z,101390.34
2018-05-21T07:25:46.538Z,101379.37
2018-05-21T07:28:12.453Z,101382.37
2018-05-21T07:30:38.389Z,101379.34
2018-05-21T07:33:04.347Z,101369.20
2018-05-21T07:35:30.281Z,101365.63
2018-05-21T07:37:56.227Z,101361.75
2018-05-21T07:40:22.182Z,101363.45
2018-05-21T07:42:48.117Z,101357.15
2018-05-21T07:45:14.047Z,101356.15
2018-05-21T07:47:39.981Z,101354.84
2018-05-21T07:50:05.915Z,101349.73
2018-05-21T07:52:31.863Z,101352.80
2018-05-21T07:54:57.788Z,101344.86
2018-05-21T07:57:23.732Z,101347.48
2018-05-21T07:59:49.699Z,101340.53
2018-05-21T08:02:15.637Z,101337.86
2018-05-21T08:04:41.591Z,101338.07
2018-05-21T08:07:07.504Z,101334.08
2018-05-21T08:09:33.454Z,101333.70
2018-05-21T08:11:59.380Z,101337.12
2018-05-21T08:14:25.386Z,101323.40
2018-05-21T08:16:51.314Z,101321.27
2018-05-21T08:19:17.258Z,101330.06
2018-05-21T08:21:43.203Z,101333.34
2018-05-21T08:24:09.134Z,101327.21
2018-05-21T08:26:35.135Z,101324.34
2018-05-21T08:29:00.999Z,101320.40
2018-05-21T08:31:26.951Z,101319.75
2018-05-21T08:33:52.875Z,101310.27
2018-05-21T08:36:18.805Z,101311.58
2018-05-21T08:38:44.732Z,101307.83
2018-05-21T08:41:10.675Z,101303.38
2018-05-21T08:43:36.609Z,101300.17
2018-05-21T08:46:02.551Z,101295.50
2018-05-21T08:48:28.490Z,101297.02
2018-05-21T08:50:54.462Z,101291.10
2018-05-21T08:53:20.403Z,101296.30
2018-05-21T08:55:46.357Z,101290.59
2018-05-21T08:58:14.634Z,101285.91
2018-05-21T09:00:40.539Z,101281.83
2018-05-21T09:03:06.449Z,101276.52
2018-05-21T09:05:32.369Z,101277.17
2018-05-21T09:07:58.309Z,101276.01
2018-05-21T09:10:24.225Z,101271.26
2018-05-21T09:12:50.179Z,101267.64
2018-05-21T09:15:16.130Z,101258.55
2018-05-21T09:17:42.058Z,101260.69
2018-05-21T09:20:07.999Z,101255.62
2018-05-21T09:22:34.014Z,101250.27
2018-05-21T09:24:59.862Z,101255.29
2018-05-21T09:27:25.787Z,101250.28
2018-05-21T09:29:51.741Z,101249.83
2018-05-21T09:32:17.766Z,101252.78
2018-05-21T09:34:43.700Z,101250.33
2018-05-21T09:37:09.637Z,101241.01
2018-05-21T09:39:35.579Z,101244.60
2018-05-21T09:42:01.528Z,101245.62
2018-05-21T09:44:27.450Z,101244.84
2018-05-21T09:46:53.410Z,101238.21
2018-05-21T09:49:19.332Z,101237.29
2018-05-21T09:51:45.261Z,101236.59
2018-05-21T09:54:11.192Z,101233.84
2018-05-21T09:56:37.149Z,101232.56
2018-05-21T09:59:03.069Z,101227.89
2018-05-21T10:01:29.016Z,101222.16
2018-05-21T10:03:54.952Z,101221.97
2018-05-21T10:06:20.891Z,101225.87
2018-05-21T10:08:46.825Z,101215.52
2018-05-21T10:11:12.757Z,101213.59
2018-05-21T10:13:38.681Z,101207.52
2018-05-21T10:16:04.609Z,101206.98
2018-05-21T10:18:30.545Z,101197.30
2018-05-21T10:20:56.499Z,101194.00
2018-05-21T10:23:22.476Z,101193.02
2018-05-21T10:25:48.411Z,101191.47
2018-05-21T10:28:14.340Z,101189.52
2018-05-21T10:30:40.317Z,101183.12
2018-05-21T10:33:06.271Z,101182.03
2018-05-21T10:35:32.221Z,101186.59
2018-05-21T10:37:58.168Z,101168.34
2018-05-21T10:40:24.147Z,101158.92
2018-05-21T10:42:50.069Z,101171.30
2018-05-21T10:45:16.008Z,101157.91
2018-05-21T10:47:41.957Z,101162.98
2018-05-21T10:50:07.865Z,101164.48
2018-05-21T10:52:33.782Z,101153.13
2018-05-21T10:54:59.735Z,101144.41
2018-05-21T10:57:25.666Z,101149.37
2018-05-21T10:59:51.626Z,101160.99
2018-05-21T11:02:17.537Z,101155.17
2018-05-21T11:04:43.504Z,101155.83
2018-05-21T11:07:09.407Z,101150.38
2018-05-21T11:09:35.330Z,101132.41
2018-05-21T11:12:01.310Z,101136.00
2018-05-21T11:14:27.243Z,101127.38
2018-05-21T11:16:53.194Z,101131.77
2018-05-21T11:19:19.116Z,101124.23
2018-05-21T11:21:45.058Z,101126.17
2018-05-21T11:24:10.981Z,101131.53
2018-05-21T11:26:36.935Z,101135.86
2018-05-21T11:29:02.867Z,101120.41
2018-05-21T11:31:28.793Z,101118.36
2018-05-21T11:33:54.742Z,101103.81
2018-05-21T11:36:20.674Z,101108.50
2018-05-21T11:38:46.623Z,101100.72
2018-05-21T11:41:12.555Z,101101.59
2018-05-21T11:43:38.531Z,101096.28
2018-05-21T11:46:04.469Z,101087.20
2018-05-21T11:48:30.428Z,101086.15
2018-05-21T11:50:56.338Z,101083.02
2018-05-21T11:53:22.261Z,101077.14
2018-05-21T11:55:48.188Z,101075.99
2018-05-21T11:58:14.149Z,101070.25
2018-05-21T12:00:40.067Z,101072.39
2018-05-21T12:03:05.979Z,101067.36
2018-05-21T12:05:31.931Z,101058.77
2018-05-21T12:07:57.860Z,101060.31
2018-05-21T12:10:23.800Z,101049.71
2018-05-21T12:12:49.713Z,101047.44
2018-05-21T12:15:15.658Z,101049.88
2018-05-21T12:17:41.679Z,101042.36
2018-05-21T12:20:07.654Z,101034.52
2018-05-21T12:22:33.613Z,101043.79
2018-05-21T12:24:59.545Z,101039.67
2018-05-21T12:27:25.501Z,101032.94
2018-05-21T12:29:51.441Z,101031.70
2018-05-21T12:32:17.420Z,101018.20
2018-05-21T12:34:43.342Z,101020.89
2018-05-21T12:37:09.273Z,101035.61
2018-05-21T12:39:35.229Z,101035.27
2018-05-21T12:42:01.196Z,101019.13
2018-05-21T12:44:27.143Z,101021.47
2018-05-21T12:46:53.197Z,101009.92
2018-05-21T12:49:19.068Z,101014.44
2018-05-21T12:51:44.982Z,101019.41
2018-05-21T12:54:10.937Z,101010.42
2018-05-21T12:56:36.861Z,101003.77
2018-05-21T12:59:02.806Z,101000.30
2018-05-21T13:01:28.712Z,100994.38
2018-05-21T13:03:54.641Z,100999.19
2018-05-21T13:06:20.557Z,100983.23
2018-05-21T13:08:46.509Z,100991.92
2018-05-21T13:11:12.449Z,100991.33
2018-05-21T13:13:38.372Z,100989.33
2018-05-21T13:16:04.306Z,100985.89
2018-05-21T13:18:30.220Z,100972.03
2018-05-21T13:20:56.181Z,100985.58
2018-05-21T13:23:22.098Z,100972.87
2018-05-21T13:25:48.037Z,100967.80
2018-05-21T13:28:13.949Z,100966.02
2018-05-21T13:30:39.893Z,100950.41
2018-05-21T13:33:05.811Z,100959.93
2018-05-21T13:35:31.771Z,100947.91
2018-05-21T13:37:57.677Z,100945.41
2018-05-21T13:40:23.635Z,100943.48
2018-05-21T13:42:49.553Z,100935.02
2018-05-21T13:45:15.467Z,100945.14
2018-05-21T13:47:41.555Z,100937.92
2018-05-21T13:50:07.542Z,100941.04
2018-05-21T13:52:33.498Z,100932.22
2018-05-21T13:54:59.388Z,100931.63
2018-05-21T13:57:25.344Z,100937.65
2018-05-21T13:59:51.275Z,100925.42
2018-05-21T14:02:17.241Z,100926.47
2018-05-21T14:04:43.154Z,100917.59
2018-05-21T14:07:09.094Z,100919.96
2018-05-21T14:09:35.009Z,100909.55
2018-05-21T14:12:00.941Z,100901.70
2018-05-21T14:14:26.889Z,100896.72
2018-05-21T14:16:52.800Z,100897.85
2018-05-21T14:19:18.763Z,100896.16
2018-05-21T14:21:44.716Z,100891.72
2018-05-21T14:24:10.677Z,100889.66
2018-05-21T14:26:36.643Z,100893.95
2018-05-21T14:29:02.609Z,100887.84
2018-05-21T14:31:28.536Z,100879.55
2018-05-21T14:33:54.509Z,100883.09
2018-05-21T14:36:20.539Z,100888.48
2018-05-21T14:38:46.476Z,100880.93
2018-05-21T14:41:12.417Z,100865.94
2018-05-21T14:43:38.364Z,100870.38
2018-05-21T14:46:04.309Z,100862.84
2018-05-21T14:48:30.297Z,100864.45
2018-05-21T14:50:56.224Z,100861.59
2018-05-21T14:53:22.157Z,100861.25
2018-05-21T14:55:48.085Z,100857.11
2018-05-21T14:58:13.988Z,100853.47
2018-05-21T15:00:39.921Z,100844.10
2018-05-21T15:03:05.849Z,100849.99
2018-05-21T15:05:31.798Z,100852.09
2018-05-21T15:07:57.767Z,100852.08
2018-05-21T15:10:23.708Z,100849.38
2018-05-21T15:12:49.644Z,100840.13
2018-05-21T15:15:15.585Z,100843.67
2018-05-21T15:17:41.550Z,100831.53
2018-05-21T15:20:07.547Z,100840.81
2018-05-21T15:22:33.484Z,100831.75
2018-05-21T15:24:59.418Z,100822.63
2018-05-21T15:27:25.381Z,100823.36
2018-05-21T15:29:51.322Z,100820.53
2018-05-21T15:32:17.286Z,100829.71
2018-05-21T15:34:43.188Z,100818.81
2018-05-21T15:37:09.113Z,100811.13
2018-05-21T15:39:35.059Z,100813.52
2018-05-21T15:42:00.990Z,100808.15
2018-05-21T15:44:26.937Z,100805.86
2018-05-21T15:46:52.876Z,100811.39
2018-05-21T15:49:18.815Z,100798.95
2018-05-21T15:51:44.726Z,100797.03
2018-05-21T15:54:10.693Z,100797.12
2018-05-21T15:56:36.604Z,100797.96
2018-05-21T15:59:02.535Z,100788.38
2018-05-21T16:01:28.463Z,100789.37
2018-05-21T16:03:54.395Z,100792.70
2018-05-21T16:06:20.379Z,100795.94
2018-05-21T16:08:46.336Z,100788.15
2018-05-21T16:11:12.285Z,100785.08
2018-05-21T16:13:38.273Z,100779.19
2018-05-21T16:16:04.207Z,100789.23
2018-05-21T16:18:30.119Z,100779.86
2018-05-21T16:20:56.084Z,100776.25
2018-05-21T16:23:22.130Z,100778.16
2018-05-21T16:25:47.991Z,100775.34
2018-05-21T16:28:13.928Z,100778.73
2018-05-21T16:30:39.885Z,100773.89
2018-05-21T16:33:05.873Z,100782.29
2018-05-21T16:35:31.925Z,100779.49
2018-05-21T16:37:57.843Z,100774.78
2018-05-21T16:40:23.812Z,100776.55
2018-05-21T16:42:49.743Z,100772.58
2018-05-21T16:45:15.677Z,100771.44
2018-05-21T16:47:41.725Z,100764.52
2018-05-21T16:50:07.632Z,100775.91
2018-05-21T16:52:33.562Z,100770.83
2018-05-21T16:54:59.542Z,100772.66
2018-05-21T16:57:25.524Z,100770.29
2018-05-21T16:59:51.496Z,100762.42
2018-05-21T17:02:17.478Z,100760.81
2018-05-21T17:04:43.488Z,100754.39
2018-05-21T17:07:09.460Z,100756.49
2018-05-21T17:09:35.414Z,100767.23
2018-05-21T17:12:01.355Z,100764.44
2018-05-21T17:14:27.362Z,100762.20
2018-05-21T17:16:53.304Z,100755.31
2018-05-21T17:19:19.272Z,100760.42
2018-05-21T17:21:45.240Z,100763.70
2018-05-21T17:24:11.201Z,100764.95
2018-05-21T17:26:37.173Z,100752.63
2018-05-21T17:29:03.117Z,100752.88
2018-05-21T17:31:29.154Z,100751.52
2018-05-21T17:33:55.689Z,100752.66
2018-05-21T17:36:21.712Z,100743.78
2018-05-21T17:38:47.684Z,100757.12
2018-05-21T17:41:13.641Z,100753.27
2018-05-21T17:43:39.602Z,100755.61
2018-05-21T17:46:05.564Z,100765.22
2018-05-21T17:48:31.497Z,100764.61
2018-05-21T17:50:57.458Z,100764.91
2018-05-21T17:53:23.493Z,100763.67
2018-05-21T17:55:50.237Z,100761.44
2018-05-21T17:58:16.197Z,100770.58
2018-05-21T18:00:42.176Z,100759.61
2018-05-21T18:03:08.265Z,100760.81
2018-05-21T18:05:34.887Z,100757.19
2018-05-21T18:08:00.887Z,100762.05
2018-05-21T18:10:26.844Z,100759.71
2018-05-21T18:12:52.865Z,100758.30
2018-05-21T18:15:18.843Z,100759.72
2018-05-21T18:17:44.833Z,100753.55
2018-05-21T18:20:10.786Z,100758.94
2018-05-21T18:22:36.772Z,100757.38
2018-05-21T18:25:02.773Z,100764.52
2018-05-21T18:27:28.708Z,100761.46
2018-05-21T18:29:54.784Z,100764.08
2018-05-21T18:32:20.821Z,100759.95
2018-05-21T18:34:46.866Z,100758.23
2018-05-21T18:37:12.930Z,100760.86
2018-05-21T18:39:38.925Z,100751.08
2018-05-21T18:42:04.875Z,100756.83
2018-05-21T18:44:31.493Z,100756.28
2018-05-21T18:46:57.499Z,100753.04
2018-05-21T18:49:23.650Z,100746.64
2018-05-21T18:51:51.531Z,100744.48
2018-05-21T18:54:17.517Z,100744.40
2018-05-21T18:56:43.469Z,100742.80
2018-05-21T18:59:09.455Z,100746.94
2018-05-21T19:01:35.427Z,100747.15
2018-05-21T19:04:01.469Z,100752.21
2018-05-21T19:06:27.989Z,100753.94
2018-05-21T19:08:55.257Z,100756.64
2018-05-21T19:11:21.290Z,100760.02
2018-05-21T19:13:47.841Z,100755.94
2018-05-21T19:16:13.838Z,100763.95
2018-05-21T19:18:39.801Z,100756.72
2018-05-21T19:21:05.807Z,100763.77
2018-05-21T19:23:31.851Z,100761.23
2018-05-21T19:25:57.783Z,100760.26
2018-05-21T19:28:24.458Z,100759.05
2018-05-21T19:30:50.493Z,100770.75
2018-05-21T19:33:16.533Z,100761.33
2018-05-21T19:35:42.612Z,100766.41
2018-05-21T19:38:08.788Z,100769.39
2018-05-21T19:40:37.506Z,100771.94
2018-05-21T19:43:03.668Z,100768.65
2018-05-21T19:45:29.637Z,100761.65
2018-05-21T19:47:55.573Z,100773.13
2018-05-21T19:50:22.368Z,100771.41
2018-05-21T19:52:49.188Z,100771.70
2018-05-21T19:55:15.180Z,100770.78
2018-05-21T19:57:41.116Z,100773.59
2018-05-21T20:00:07.077Z,100773.89
2018-05-21T20:02:33.076Z,100770.80
2018-05-21T20:04:59.537Z,100769.28
2018-05-21T20:07:25.627Z,100774.42
2018-05-21T20:09:51.534Z,100767.98
2018-05-21T20:12:17.552Z,100771.12
2018-05-21T20:14:43.645Z,100774.22
2018-05-21T20:17:09.627Z,100777.47
2018-05-21T20:19:35.746Z,100771.53
2018-05-21T20:22:01.741Z,100770.74
2018-05-21T20:24:27.678Z,100775.45
2018-05-21T20:26:53.621Z,100769.63
2018-05-21T20:29:19.598Z,100765.34
2018-05-21T20:31:45.650Z,100764.93
2018-05-21T20:34:11.595Z,100769.30
2018-05-21T20:36:37.570Z,100767.62
2018-05-21T20:39:04.463Z,100769.30
2018-05-21T20:41:30.424Z,100767.78
2018-05-21T20:43:56.983Z,100768.09
2018-05-21T20:46:23.927Z,100766.02
2018-05-21T20:48:49.962Z,100766.97
2018-05-21T20:51:15.900Z,100766.60
2018-05-21T20:53:41.985Z,100770.31
2018-05-21T20:56:08.032Z,100770.06
2018-05-21T20:58:33.975Z,100767.62
2018-05-21T21:01:00.003Z,100774.95
2018-05-21T21:03:25.985Z,100772.80
2018-05-21T21:05:52.864Z,100769.40
2018-05-21T21:08:19.330Z,100770.75
2018-05-21T21:10:45.601Z,100771.58
2018-05-21T21:13:11.575Z,100767.14
2018-05-21T21:15:37.708Z,100761.86
2018-05-21T21:18:04.048Z,100766.84
2018-05-21T21:20:30.880Z,100767.20
2018-05-21T21:22:56.878Z,100763.15
2018-05-21T21:25:22.852Z,100769.22
2018-05-21T21:27:48.894Z,100763.09
2018-05-21T21:30:15.011Z,100766.48
2018-05-21T21:32:41.096Z,100763.86
2018-05-21T21:35:06.920Z,100774.12
2018-05-21T21:37:32.892Z,100768.89
2018-05-21T21:39:58.833Z,100766.52
2018-05-21T21:42:24.815Z,100762.77
2018-05-21T21:44:50.794Z,100763.43
2018-05-21T21:47:16.748Z,100759.75
2018-05-21T21:49:42.730Z,100756.13
2018-05-21T21:52:08.705Z,100760.59
2018-05-21T21:54:34.658Z,100760.35
2018-05-21T21:57:00.597Z,100762.81
2018-05-21T21:59:26.557Z,100759.83
2018-05-21T22:01:52.506Z,100759.92
2018-05-21T22:04:18.461Z,100760.48
2018-05-21T22:06:44.381Z,100763.64
2018-05-21T22:09:10.354Z,100763.13
2018-05-21T22:11:36.265Z,100759.96
2018-05-21T22:14:02.204Z,100764.16
2018-05-21T22:16:28.149Z,100760.06
2018-05-21T22:18:54.130Z,100757.30
2018-05-21T22:21:20.125Z,100760.72
2018-05-21T22:23:46.077Z,100754.05
2018-05-21T22:26:12.044Z,100757.05
2018-05-21T22:28:37.969Z,100749.19
2018-05-21T22:31:03.903Z,100751.64
2018-05-21T22:33:29.872Z,100742.67
2018-05-21T22:35:55.797Z,100747.91
2018-05-21T22:38:21.740Z,100746.21
2018-05-21T22:40:47.664Z,100742.30
2018-05-21T22:43:13.653Z,100751.55
2018-05-21T22:45:39.584Z,100746.34
2018-05-21T22:48:05.536Z,100745.81
2018-05-21T22:50:31.470Z,100740.27
2018-05-21T22:52:57.413Z,100741.66
2018-05-21T22:55:23.350Z,100745.67
2018-05-21T22:57:49.271Z,100741.98
2018-05-21T23:00:15.198Z,100742.47
2018-05-21T23:02:41.110Z,100736.45
2018-05-21T23:05:07.047Z,100737.61
2018-05-21T23:07:33.021Z,100735.47
2018-05-21T23:09:58.956Z,100725.64
2018-05-21T23:12:24.862Z,100725.02
2018-05-21T23:14:50.819Z,100729.48
2018-05-21T23:17:16.750Z,100734.78
2018-05-21T23:19:42.673Z,100729.53
2018-05-21T23:22:10.459Z,100726.27
2018-05-21T23:24:36.377Z,100722.56
2018-05-21T23:27:02.317Z,100722.41
2018-05-21T23:29:28.226Z,100719.95
2018-05-21T23:31:54.156Z,100722.02
2018-05-21T23:34:20.070Z,100712.83
2018-05-21T23:39:38.950Z,100714.17
2018-05-21T23:42:04.812Z,100712.17
2018-05-21T23:44:30.737Z,100711.27
2018-05-21T23:46:56.675Z,100710.23
2018-05-21T23:49:22.595Z,100705.25
2018-05-21T23:51:48.521Z,100706.25
2018-05-21T23:54:14.443Z,100709.66
2018-05-21T23:56:40.358Z,100712.92
2018-05-21T23:59:06.267Z,100702.07
